Time;durP1;ratioP1;P1;durP2;ratioP2;P2;SDS_P1;SDS_P2;PMS_P1;PMS_P2;Temp;Humidity;BMP_temperature;BMP_pressure;BME280_temperature;BME280_humidity;BME280_pressure;Samples;Min_cycle;Max_cycle;Signal;HPM_P1;HPM_P2
2023/10/31 00:01:10;;;;;;;;;;;;;;;20.65;57.51;101645.22;5074987;28;20386;-81
2023/10/31 00:03:36;;;;;;;;;;;;;;;20.65;57.82;101640.78;5064192;28;19924;-80
2023/10/31 00:06:01;;;;;;;;;;;;;;;20.60;57.93;101645.09;5064072;28;19925;-81
2023/10/31 00:08:27;;;;;;;;;;;;;;;20.62;58.05;101642.50;5068790;28;20360;-81
2023/10/31 00:10:52;;;;;;;;;;;;;;;20.61;57.82;101643.34;5072284;28;19912;-80
2023/10/31 00:13:17;;;;;;;;;;;;;;;20.57;58.00;101637.00;5072911;28;20321;-80
2023/10/31 00:15:43;;;;;;;;;;;;;;;20.58;57.80;101637.97;5070163;28;20302;-80
2023/10/31 00:18:08;;;;;;;;;;;;;;;20.59;58.06;101632.66;5062251;28;19920;-80
2023/10/31 00:20:34;;;;;;;;;;;;;;;20.58;57.83;101638.84;5067125;28;19920;-80
2023/10/31 00:23:00;;;;;;;;;;;;;;;20.59;57.88;101639.75;5072571;28;20338;-80
2023/10/31 00:25:25;;;;;;;;;;;;;;;20.58;57.83;101645.91;5072261;28;19924;-80
2023/10/31 00:27:50;;;;;;;;;;;;;;;20.56;58.05;101643.19;5070186;28;19920;-80
2023/10/31 00:30:16;;;;;;;;;;;;;;;20.58;57.95;101645.91;5066001;28;19925;-80
2023/10/31 00:32:42;;;;;;;;;;;;;;;20.57;57.98;101644.97;5066148;28;19920;-80
2023/10/31 00:35:07;;;;;;;;;;;;;;;20.56;57.93;101640.53;5053995;28;19927;-81
2023/10/31 00:37:33;;;;;;;;;;;;;;;20.53;58.05;101641.34;5063461;28;19921;-79
2023/10/31 00:39:58;;;;;;;;;;;;;;;20.49;58.42;101636.81;5072137;28;19916;-81
2023/10/31 00:42:24;;;;;;;;;;;;;;;20.52;58.25;101636.00;5061696;28;20397;-82
2023/10/31 00:44:49;;;;;;;;;;;;;;;20.51;58.22;101639.47;5071431;28;20547;-81
2023/10/31 00:47:15;;;;;;;;;;;;;;;20.47;58.35;101637.63;5037805;28;19973;-82
2023/10/31 00:49:40;;;;;;;;;;;;;;;20.44;58.60;101637.53;5072303;28;19917;-82
2023/10/31 00:52:06;;;;;;;;;;;;;;;20.46;58.31;101634.06;5065303;28;19920;-81
2023/10/31 00:54:31;;;;;;;;;;;;;;;20.47;58.29;101627.91;5063943;28;20014;-80
2023/10/31 00:56:57;;;;;;;;;;;;;;;20.43;58.69;101628.69;5064193;28;20394;-80
2023/10/31 00:59:22;;;;;;;;;;;;;;;20.48;58.27;101623.50;5070813;28;20564;-81
2023/10/31 01:01:47;;;;;;;;;;;;;;;20.47;58.19;101632.34;5058361;28;20434;-82
2023/10/31 01:04:13;;;;;;;;;;;;;;;20.45;58.41;101628.75;5071231;28;20023;-81
2023/10/31 01:06:42;;;;;;;;;;;;;;;20.41;58.60;101625.09;5072005;28;20385;-81
2023/10/31 01:09:07;;;;;;;;;;;;;;;20.41;58.55;101622.44;5070849;28;19920;-81
2023/10/31 01:11:32;;;;;;;;;;;;;;;20.39;58.64;101618.84;5070687;28;20015;-81
2023/10/31 01:13:58;;;;;;;;;;;;;;;20.43;58.55;101620.72;5068772;28;20020;-81
2023/10/31 01:16:23;;;;;;;;;;;;;;;20.42;58.56;101616.25;5068106;28;20421;-80
2023/10/31 01:18:49;;;;;;;;;;;;;;;20.39;58.99;101616.19;5066452;28;19927;-82
2023/10/31 01:21:14;;;;;;;;;;;;;;;20.38;58.71;101614.38;5070362;28;20011;-81
2023/10/31 01:23:39;;;;;;;;;;;;;;;20.37;58.73;101619.66;5068293;28;19920;-81
2023/10/31 01:26:05;;;;;;;;;;;;;;;20.37;58.99;101614.34;5065168;28;20297;-81
2023/10/31 01:28:30;;;;;;;;;;;;;;;20.46;58.11;101619.91;5066075;28;20390;-80
2023/10/31 01:30:56;;;;;;;;;;;;;;;20.37;59.05;101619.66;5052792;28;19931;-79
2023/10/31 01:33:21;;;;;;;;;;;;;;;20.37;58.79;101623.22;5051255;28;20001;-80
2023/10/31 01:35:47;;;;;;;;;;;;;;;20.33;59.07;101611.59;5068925;28;20390;-80
2023/10/31 01:38:13;;;;;;;;;;;;;;;20.34;59.21;101613.41;5076578;28;19962;-80
2023/10/31 01:40:38;;;;;;;;;;;;;;;20.36;58.89;101602.81;5070967;28;19938;-80
2023/10/31 01:43:03;;;;;;;;;;;;;;;20.33;59.27;101606.28;5059894;28;19928;-82
2023/10/31 01:45:32;;;;;;;;;;;;;;;20.31;59.10;101610.66;5038462;28;20312;-79
2023/10/31 01:47:57;;;;;;;;;;;;;;;20.36;58.88;101604.59;5052330;28;19920;-81
2023/10/31 01:50:22;;;;;;;;;;;;;;;20.34;58.92;101596.59;5070715;28;19920;-81
2023/10/31 01:52:48;;;;;;;;;;;;;;;20.34;58.78;101608.13;5050966;28;20446;-80
2023/10/31 01:55:13;;;;;;;;;;;;;;;20.31;58.96;101605.34;5066867;28;19924;-82
2023/10/31 01:57:39;;;;;;;;;;;;;;;20.31;59.13;101599.16;5047235;28;19920;-81
2023/10/31 02:00:05;;;;;;;;;;;;;;;20.32;58.96;101604.50;5044095;28;19921;-81
2023/10/31 02:02:30;;;;;;;;;;;;;;;20.29;59.26;101598.22;5068775;28;19936;-81
2023/10/31 02:04:56;;;;;;;;;;;;;;;20.29;58.82;101598.22;5044993;28;20310;-81
2023/10/31 02:07:21;;;;;;;;;;;;;;;20.32;59.06;101593.91;5068228;28;20368;-81
2023/10/31 02:09:47;;;;;;;;;;;;;;;20.32;59.03;101593.91;5069247;28;20408;-80
2023/10/31 02:12:30;;;;;;;;;;;;;;;20.30;58.91;101587.66;5053400;28;19920;-81
2023/10/31 02:14:56;;;;;;;;;;;;;;;20.33;58.82;101581.53;5057728;28;20166;-81
2023/10/31 02:17:21;;;;;;;;;;;;;;;20.31;59.27;101588.56;5049689;28;19943;-82
2023/10/31 02:19:47;;;;;;;;;;;;;;;20.21;59.35;101587.38;5069194;28;19921;-81
2023/10/31 02:22:12;;;;;;;;;;;;;;;20.31;58.81;101592.09;5039885;28;19925;-81
2023/10/31 02:24:38;;;;;;;;;;;;;;;20.26;59.00;101588.44;5067894;28;19921;-81
2023/10/31 02:27:03;;;;;;;;;;;;;;;20.25;59.21;101583.06;5057876;28;20603;-81
2023/10/31 02:29:29;;;;;;;;;;;;;;;20.23;59.21;101593.63;5069565;28;20441;-82
2023/10/31 02:31:55;;;;;;;;;;;;;;;20.25;59.04;101585.72;5066557;28;20037;-81
2023/10/31 02:34:20;;;;;;;;;;;;;;;20.21;59.12;101590.03;5052999;28;20310;-81
2023/10/31 02:36:46;;;;;;;;;;;;;;;20.26;59.18;101587.53;5049264;28;19924;-81
2023/10/31 02:39:11;;;;;;;;;;;;;;;20.28;59.10;101585.84;5070617;28;19923;-81
2023/10/31 02:41:36;;;;;;;;;;;;;;;20.28;59.28;101584.06;5048283;28;19928;-81
2023/10/31 02:44:02;;;;;;;;;;;;;;;20.26;59.15;101590.19;5069879;28;19967;-81
2023/10/31 02:46:27;;;;;;;;;;;;;;;20.22;59.18;101583.91;5070307;28;19924;-81
2023/10/31 02:48:53;;;;;;;;;;;;;;;20.24;59.35;101583.94;5070863;28;19917;-81
2023/10/31 02:51:18;;;;;;;;;;;;;;;20.25;58.92;101593.69;5049835;28;20298;-81
2023/10/31 02:53:43;;;;;;;;;;;;;;;20.18;59.14;101594.38;5056637;28;20005;-81
2023/10/31 02:56:09;;;;;;;;;;;;;;;20.24;59.03;101587.50;5039486;28;19940;-81
2023/10/31 02:58:34;;;;;;;;;;;;;;;20.23;59.36;101595.41;5052270;28;20297;-81
2023/10/31 03:01:00;;;;;;;;;;;;;;;20.20;59.26;101585.59;5066706;28;19974;-80
2023/10/31 03:03:25;;;;;;;;;;;;;;;20.14;59.41;101585.44;5066819;28;19920;-81
2023/10/31 03:05:51;;;;;;;;;;;;;;;20.22;59.15;101583.91;5067442;28;19951;-81
2023/10/31 03:08:20;;;;;;;;;;;;;;;20.22;59.13;101589.19;5059999;28;20399;-81
2023/10/31 03:10:49;;;;;;;;;;;;;;;20.21;59.34;101590.03;5068765;28;19917;-81
2023/10/31 03:13:15;;;;;;;;;;;;;;;20.21;59.17;101587.38;5032643;28;20216;-81
2023/10/31 03:15:40;;;;;;;;;;;;;;;20.22;59.09;101589.19;5052783;28;20449;-81
2023/10/31 03:18:06;;;;;;;;;;;;;;;20.20;59.21;101590.91;5065020;28;20390;-83
2023/10/31 03:20:31;;;;;;;;;;;;;;;20.22;58.85;101594.50;5063475;28;19917;-83
2023/10/31 03:22:57;;;;;;;;;;;;;;;20.18;59.37;101586.44;5061245;28;20480;-83
2023/10/31 03:25:22;;;;;;;;;;;;;;;20.17;59.26;101580.22;5068135;28;19924;-82
2023/10/31 03:27:47;;;;;;;;;;;;;;;20.14;59.40;101578.38;5068132;28;19921;-82
2023/10/31 03:30:13;;;;;;;;;;;;;;;20.20;59.17;101590.91;5061259;28;19921;-82
2023/10/31 03:32:38;;;;;;;;;;;;;;;20.18;59.01;101587.31;5070422;28;20385;-81
2023/10/31 03:35:04;;;;;;;;;;;;;;;20.13;59.19;101578.34;5069235;28;20397;-82
2023/10/31 03:37:29;;;;;;;;;;;;;;;20.17;59.07;101577.59;5069052;28;19939;-82
2023/10/31 03:39:55;;;;;;;;;;;;;;;20.16;59.17;101577.53;5064887;28;19927;-81
2023/10/31 03:42:20;;;;;;;;;;;;;;;20.10;59.28;101576.47;5065297;28;20309;-81
2023/10/31 03:44:45;;;;;;;;;;;;;;;20.14;59.06;101573.06;5069482;28;20318;-81
2023/10/31 03:47:11;;;;;;;;;;;;;;;20.12;59.11;101572.13;5066746;28;20398;-81
2023/10/31 03:49:40;;;;;;;;;;;;;;;20.07;59.33;101573.75;5069919;28;20397;-81
2023/10/31 03:52:05;;;;;;;;;;;;;;;20.10;59.14;101575.59;5053982;28;19916;-81
2023/10/31 03:54:31;;;;;;;;;;;;;;;20.12;59.05;101576.53;5059501;28;19927;-80
2023/10/31 03:56:56;;;;;;;;;;;;;;;20.09;59.06;101571.16;5068278;28;19924;-80
2023/10/31 03:59:21;;;;;;;;;;;;;;;20.07;59.46;101578.19;5068410;28;19956;-81
2023/10/31 04:01:47;;;;;;;;;;;;;;;20.07;59.58;101578.19;5066534;28;20438;-81
2023/10/31 04:04:12;;;;;;;;;;;;;;;20.07;59.38;101576.41;5065860;28;20500;-81
2023/10/31 04:06:40;;;;;;;;;;;;;;;20.04;59.52;101570.13;5072112;28;20020;-82
2023/10/31 04:09:06;;;;;;;;;;;;;;;20.07;59.33;101568.47;5066692;28;19925;-80
2023/10/31 04:11:31;;;;;;;;;;;;;;;20.06;59.54;101579.91;5059637;28;19974;-81
2023/10/31 04:13:57;;;;;;;;;;;;;;;20.03;59.43;101577.19;5070037;28;19927;-84
2023/10/31 04:16:23;;;;;;;;;;;;;;;20.06;59.29;101576.34;5038111;28;20317;-81
2023/10/31 04:18:48;;;;;;;;;;;;;;;20.06;59.74;101579.91;5034455;28;20425;-84
2023/10/31 04:21:14;;;;;;;;;;;;;;;20.06;59.27;101579.00;5069015;28;19928;-83
2023/10/31 04:23:39;;;;;;;;;;;;;;;20.00;59.56;101576.19;5052949;28;20389;-81
2023/10/31 04:26:05;;;;;;;;;;;;;;;20.01;59.32;101581.53;5063004;28;20279;-82
2023/10/31 04:28:30;;;;;;;;;;;;;;;20.00;59.50;101589.44;5063717;28;20042;-81
2023/10/31 04:30:56;;;;;;;;;;;;;;;20.01;59.40;101588.59;5066250;28;19940;-81
2023/10/31 04:33:21;;;;;;;;;;;;;;;19.98;59.44;101584.13;5062765;28;19928;-83
2023/10/31 04:35:46;;;;;;;;;;;;;;;20.01;59.31;101592.16;5064169;28;19921;-83
2023/10/31 04:38:12;;;;;;;;;;;;;;;20.02;59.16;101587.72;5064935;28;20406;-83
2023/10/31 04:40:40;;;;;;;;;;;;;;;20.01;59.29;101591.25;5049342;28;19947;-81
2023/10/31 04:43:06;;;;;;;;;;;;;;;20.00;59.81;101592.09;5063438;28;19948;-81
2023/10/31 04:45:32;;;;;;;;;;;;;;;19.97;59.61;101594.66;5051656;28;20037;-83
2023/10/31 04:47:57;;;;;;;;;;;;;;;19.99;59.20;101599.16;5062284;28;19947;-84
2023/10/31 04:50:22;;;;;;;;;;;;;;;20.01;59.23;101600.09;5065008;28;19928;-83
2023/10/31 04:52:48;;;;;;;;;;;;;;;20.00;59.61;101597.41;5068426;28;19985;-83
2023/10/31 04:55:13;;;;;;;;;;;;;;;19.97;59.30;101597.31;5051178;28;20389;-81
2023/10/31 04:57:39;;;;;;;;;;;;;;;19.98;59.44;101594.72;5068845;28;19927;-82
2023/10/31 05:00:06;;;;;;;;;;;;;;;19.99;59.67;101588.56;5070670;28;19926;-82
2023/10/31 05:02:31;;;;;;;;;;;;;;;19.96;59.62;101580.53;5046021;28;19920;-81
2023/10/31 05:04:57;;;;;;;;;;;;;;;19.95;59.80;101583.13;5061676;28;19924;-81
2023/10/31 05:07:23;;;;;;;;;;;;;;;19.92;59.45;101579.53;5066320;28;19946;-80
2023/10/31 05:09:48;;;;;;;;;;;;;;;19.93;59.29;101577.78;5065858;28;19928;-81
2023/10/31 05:12:14;;;;;;;;;;;;;;;19.91;59.52;101585.66;5065214;28;19920;-81
2023/10/31 05:14:40;;;;;;;;;;;;;;;19.79;59.82;101573.81;5060595;28;20386;-81
2023/10/31 05:17:05;;;;;;;;;;;;;;;19.90;59.72;101578.59;5047815;28;19921;-80
2023/10/31 05:19:30;;;;;;;;;;;;;;;19.86;59.69;101586.41;5065156;28;19921;-81
2023/10/31 05:21:56;;;;;;;;;;;;;;;19.92;59.66;101586.59;5068925;28;19928;-81
2023/10/31 05:24:21;;;;;;;;;;;;;;;19.91;59.51;101593.63;5063655;28;20298;-80
2023/10/31 05:26:47;;;;;;;;;;;;;;;19.92;59.44;101589.25;5065794;28;19921;-81
2023/10/31 05:29:12;;;;;;;;;;;;;;;19.85;59.55;101584.59;5058746;28;19971;-80
2023/10/31 05:31:37;;;;;;;;;;;;;;;19.89;59.47;101579.44;5069103;28;19931;-81
2023/10/31 05:34:06;;;;;;;;;;;;;;;19.89;59.59;101589.13;5066416;28;20467;-81
2023/10/31 05:36:32;;;;;;;;;;;;;;;19.86;59.87;101594.38;5062185;28;20389;-81
2023/10/31 05:38:57;;;;;;;;;;;;;;;19.85;59.60;101585.50;5075512;28;19924;-80
2023/10/31 05:41:23;;;;;;;;;;;;;;;19.89;59.32;101584.72;5063792;28;20428;-81
2023/10/31 05:43:48;;;;;;;;;;;;;;;19.90;59.65;101577.69;5059702;28;19984;-81
2023/10/31 05:46:14;;;;;;;;;;;;;;;19.90;59.69;101581.25;5064241;28;19986;-81
2023/10/31 05:48:40;;;;;;;;;;;;;;;19.87;59.83;101588.19;5065889;28;19917;-82
2023/10/31 05:51:16;;;;;;;;;;;;;;;19.88;59.69;101585.59;5065781;28;19920;-82
2023/10/31 05:53:42;;;;;;;;;;;;;;;19.86;59.64;101584.66;5045303;28;19920;-81
2023/10/31 05:56:08;;;;;;;;;;;;;;;19.84;59.57;101581.06;5067439;28;19920;-81
2023/10/31 05:58:33;;;;;;;;;;;;;;;19.81;59.77;101591.59;5065396;28;19975;-82
2023/10/31 06:00:58;;;;;;;;;;;;;;;19.80;59.69;101584.47;5069064;28;19956;-82
2023/10/31 06:03:24;;;;;;;;;;;;;;;19.83;59.79;101589.88;5045839;28;19943;-81
2023/10/31 06:05:49;;;;;;;;;;;;;;;19.85;59.59;101582.84;5068559;28;19921;-81
2023/10/31 06:08:15;;;;;;;;;;;;;;;19.85;59.64;101585.50;5068992;28;19917;-82
2023/10/31 06:10:40;;;;;;;;;;;;;;;19.87;59.61;101590.84;5070075;28;20404;-81
2023/10/31 06:13:06;;;;;;;;;;;;;;;19.85;59.74;101589.91;5069159;28;20424;-81
2023/10/31 06:15:31;;;;;;;;;;;;;;;19.83;59.76;101587.22;5069588;28;19927;-82
2023/10/31 06:17:57;;;;;;;;;;;;;;;19.85;59.71;101587.25;5066366;28;19924;-81
2023/10/31 06:20:23;;;;;;;;;;;;;;;19.90;59.37;101593.59;5068309;28;20352;-82
2023/10/31 06:22:49;;;;;;;;;;;;;;;19.86;59.52;101591.72;5055608;28;20029;-81
2023/10/31 06:25:14;;;;;;;;;;;;;;;19.83;59.75;101596.91;5059488;28;20402;-80
2023/10/31 06:27:40;;;;;;;;;;;;;;;19.84;59.72;101590.78;5059569;28;20390;-81
2023/10/31 06:30:05;;;;;;;;;;;;;;;19.85;59.77;101593.44;5067911;28;20382;-80
2023/10/31 06:32:31;;;;;;;;;;;;;;;19.86;59.67;101591.72;5062155;28;20462;-80
2023/10/31 06:34:56;;;;;;;;;;;;;;;19.81;59.85;101588.94;5069382;28;19928;-80
2023/10/31 06:37:22;;;;;;;;;;;;;;;19.76;60.01;101585.22;5063727;28;20382;-80
2023/10/31 06:39:47;;;;;;;;;;;;;;;19.81;59.77;101575.69;5067875;28;20397;-80
2023/10/31 06:42:13;;;;;;;;;;;;;;;19.81;59.66;101575.69;5033946;28;19925;-81
2023/10/31 06:44:38;;;;;;;;;;;;;;;19.81;59.75;101580.97;5066399;28;19927;-79
2023/10/31 06:47:04;;;;;;;;;;;;;;;19.81;59.88;101590.66;5071707;28;19927;-81
2023/10/31 06:49:29;;;;;;;;;;;;;;;19.82;59.94;101588.06;5087343;28;19912;-81
2023/10/31 06:51:54;;;;;;;;;;;;;;;19.83;59.82;101594.25;5062294;28;19925;-81
2023/10/31 06:54:21;;;;;;;;;;;;;;;19.82;60.01;101595.13;5057310;28;20382;-81
2023/10/31 06:56:46;;;;;;;;;;;;;;;19.81;59.96;101588.00;5070102;28;19923;-81
2023/10/31 06:59:12;;;;;;;;;;;;;;;19.80;59.89;101579.16;5067414;28;19920;-80
2023/10/31 07:01:37;;;;;;;;;;;;;;;19.82;59.80;101589.81;5070112;28;19943;-80
2023/10/31 07:04:03;;;;;;;;;;;;;;;19.83;59.78;101578.34;5064222;28;19925;-81
2023/10/31 07:06:28;;;;;;;;;;;;;;;19.80;59.87;101579.16;5056308;28;19924;-81
2023/10/31 07:08:54;;;;;;;;;;;;;;;19.80;60.04;101591.53;5061519;28;20326;-79
2023/10/31 07:11:19;;;;;;;;;;;;;;;19.80;59.84;101589.78;5069763;28;20325;-79
2023/10/31 07:13:44;;;;;;;;;;;;;;;19.78;60.06;101585.28;5070506;28;19917;-79
2023/10/31 07:16:10;;;;;;;;;;;;;;;19.76;60.13;101576.38;5064525;28;19920;-79
2023/10/31 07:18:36;;;;;;;;;;;;;;;19.78;60.03;101590.59;5020750;28;19932;-79
2023/10/31 07:21:01;;;;;;;;;;;;;;;19.79;59.96;101587.06;5068113;28;19990;-79
2023/10/31 07:23:27;;;;;;;;;;;;;;;19.79;60.09;101590.63;5066826;28;20401;-80
2023/10/31 07:25:52;;;;;;;;;;;;;;;19.79;60.04;101585.34;5073185;28;19947;-79
2023/10/31 07:28:18;;;;;;;;;;;;;;;19.81;59.80;101594.22;5072040;28;19924;-79
2023/10/31 07:30:44;;;;;;;;;;;;;;;19.76;59.93;101590.53;5068169;28;20378;-80
2023/10/31 07:33:09;;;;;;;;;;;;;;;19.76;60.00;101590.53;5062474;28;20008;-81
2023/10/31 07:35:34;;;;;;;;;;;;;;;19.79;59.86;101595.03;5062321;28;20525;-79
2023/10/31 07:38:00;;;;;;;;;;;;;;;19.78;59.92;101591.47;5055849;28;20412;-79
2023/10/31 07:40:25;;;;;;;;;;;;;;;19.78;59.73;101590.59;5065677;28;19928;-80
2023/10/31 07:42:51;;;;;;;;;;;;;;;19.75;59.93;101588.75;5066353;28;20313;-79
2023/10/31 07:45:16;;;;;;;;;;;;;;;19.78;59.97;101591.47;5064021;28;19930;-78
2023/10/31 07:47:42;;;;;;;;;;;;;;;19.75;59.97;101586.09;5066198;28;19924;-79
2023/10/31 07:50:07;;;;;;;;;;;;;;;19.79;59.93;101576.47;5049823;28;19993;-79
2023/10/31 07:52:33;;;;;;;;;;;;;;;19.75;59.96;101578.16;5069961;28;19920;-80
2023/10/31 07:54:58;;;;;;;;;;;;;;;19.76;60.00;101577.28;5064817;28;19921;-80
2023/10/31 07:57:24;;;;;;;;;;;;;;;19.76;60.10;101568.44;5067617;28;19920;-80
2023/10/31 07:59:49;;;;;;;;;;;;;;;19.68;60.54;101570.81;5068758;28;20384;-81
2023/10/31 08:02:15;;;;;;;;;;;;;;;19.75;60.15;101562.25;5047737;28;19928;-80
2023/10/31 08:04:40;;;;;;;;;;;;;;;19.77;60.21;101564.91;5066427;28;20386;-80
2023/10/31 08:07:05;;;;;;;;;;;;;;;19.75;60.29;101563.97;5072995;28;19916;-80
2023/10/31 08:09:31;;;;;;;;;;;;;;;19.77;60.18;101556.97;5063483;28;19925;-80
2023/10/31 08:11:57;;;;;;;;;;;;;;;19.72;60.25;101557.72;5078371;28;19927;-80
2023/10/31 08:14:22;;;;;;;;;;;;;;;19.74;60.50;101557.78;5072711;28;19931;-80
2023/10/31 08:16:47;;;;;;;;;;;;;;;19.74;60.46;101555.13;5061494;28;20019;-79
2023/10/31 08:19:14;;;;;;;;;;;;;;;19.75;60.34;101550.72;5056517;28;19928;-79
2023/10/31 08:21:40;;;;;;;;;;;;;;;19.71;60.48;101549.75;5070936;28;19920;-80
2023/10/31 08:24:06;;;;;;;;;;;;;;;19.72;60.52;101552.44;5072549;28;20010;-80
2023/10/31 08:26:32;;;;;;;;;;;;;;;19.70;60.55;101558.53;5071075;28;19996;-80
2023/10/31 08:28:57;;;;;;;;;;;;;;;19.72;60.42;101551.53;5054504;28;19928;-79
2023/10/31 08:31:23;;;;;;;;;;;;;;;19.70;60.58;101550.59;5065707;28;19920;-79
2023/10/31 08:33:48;;;;;;;;;;;;;;;19.66;60.69;101546.03;5072910;28;19959;-79
2023/10/31 08:36:13;;;;;;;;;;;;;;;19.65;60.80;101547.78;5069461;28;19924;-81
2023/10/31 08:38:39;;;;;;;;;;;;;;;19.64;60.72;101540.69;5061796;28;19921;-79
2023/10/31 08:41:05;;;;;;;;;;;;;;;19.67;60.63;101535.47;5070651;28;20390;-81
2023/10/31 08:43:30;;;;;;;;;;;;;;;19.64;60.58;101538.06;5067255;28;19920;-81
2023/10/31 08:45:55;;;;;;;;;;;;;;;19.59;60.79;101528.16;5064811;28;19927;-80
2023/10/31 08:48:21;;;;;;;;;;;;;;;19.59;60.98;101533.47;5058865;28;20317;-81
2023/10/31 08:50:46;;;;;;;;;;;;;;;19.56;60.82;101531.63;5071556;28;19935;-81
2023/10/31 08:53:12;;;;;;;;;;;;;;;19.53;61.06;101519.16;5068592;28;20714;-80
2023/10/31 08:55:37;;;;;;;;;;;;;;;19.55;61.00;101520.97;5072437;28;20456;-81
2023/10/31 08:58:03;;;;;;;;;;;;;;;19.50;60.86;101520.84;5068237;28;19990;-80
2023/10/31 09:00:28;;;;;;;;;;;;;;;19.52;60.86;101513.84;5054402;28;20309;-81
2023/10/31 09:02:54;;;;;;;;;;;;;;;19.49;61.05;101512.00;5065176;28;19924;-80
2023/10/31 09:05:20;;;;;;;;;;;;;;;19.49;61.17;101511.09;5072502;28;20374;-81
2023/10/31 09:07:46;;;;;;;;;;;;;;;19.48;61.11;101507.53;5071296;28;19917;-80
2023/10/31 09:10:12;;;;;;;;;;;;;;;19.49;60.91;101503.13;5053141;28;20373;-80
2023/10/31 09:12:37;;;;;;;;;;;;;;;19.48;60.91;101504.91;5071812;28;19969;-80
2023/10/31 09:15:03;;;;;;;;;;;;;;;19.48;61.14;101502.25;5068325;28;19924;-81
2023/10/31 09:17:28;;;;;;;;;;;;;;;19.49;61.19;101497.84;5058717;28;19940;-81
2023/10/31 09:19:54;;;;;;;;;;;;;;;19.49;60.84;101495.19;5061750;28;19916;-80
2023/10/31 09:22:19;;;;;;;;;;;;;;;19.49;61.17;101497.84;5071602;28;20026;-81
2023/10/31 09:24:45;;;;;;;;;;;;;;;19.47;61.31;101494.25;5071732;28;20449;-81
2023/10/31 09:27:10;;;;;;;;;;;;;;;19.48;61.14;101494.31;5066738;28;20368;-80
2023/10/31 09:29:36;;;;;;;;;;;;;;;19.48;61.45;101494.31;5051561;28;19960;-80
2023/10/31 09:32:01;;;;;;;;;;;;;;;19.49;61.08;101485.50;5068810;28;20390;-81
2023/10/31 09:34:28;;;;;;;;;;;;;;;19.50;61.29;101482.00;5071192;28;19926;-80
2023/10/31 09:36:53;;;;;;;;;;;;;;;19.50;61.19;101475.81;5071184;28;19920;-80
2023/10/31 09:39:19;;;;;;;;;;;;;;;19.55;61.19;101473.28;5069132;28;20453;-80
2023/10/31 09:41:44;;;;;;;;;;;;;;;19.55;61.06;101465.34;5068883;28;19922;-81
2023/10/31 09:44:10;;;;;;;;;;;;;;;19.56;61.38;101467.13;5067466;28;20396;-80
2023/10/31 09:46:35;;;;;;;;;;;;;;;19.55;61.08;101463.56;5065362;28;20277;-81
2023/10/31 09:49:01;;;;;;;;;;;;;;;19.58;61.03;101449.50;5051758;28;20345;-80
2023/10/31 09:51:27;;;;;;;;;;;;;;;19.58;61.06;101453.09;5051545;28;19925;-80
2023/10/31 09:53:54;;;;;;;;;;;;;;;19.57;61.10;101445.97;5034679;28;19920;-80
2023/10/31 09:56:20;;;;;;;;;;;;;;;19.60;61.19;101445.16;5069848;28;19916;-80
2023/10/31 09:58:45;;;;;;;;;;;;;;;19.57;61.26;101438.03;5052404;28;19939;-80
2023/10/31 10:01:11;;;;;;;;;;;;;;;19.76;60.73;101431.50;5069122;28;20016;-80
2023/10/31 10:03:36;;;;;;;;;;;;;;;19.69;60.62;101433.06;5069371;28;19921;-80
2023/10/31 10:06:02;;;;;;;;;;;;;;;19.63;61.44;101429.38;5049722;28;20719;-79
2023/10/31 10:08:27;;;;;;;;;;;;;;;19.63;61.34;101430.25;5064495;28;19928;-79
2023/10/31 10:10:53;;;;;;;;;;;;;;;19.66;61.13;101421.47;5069857;28;19931;-79
2023/10/31 10:13:18;;;;;;;;;;;;;;;19.65;61.01;101417.94;5080410;28;20382;-80
2023/10/31 10:15:54;;;;;;;;;;;;;;;19.62;61.12;101419.59;5052610;28;20302;-81
2023/10/31 10:18:30;;;;;;;;;;;;;;;19.69;61.13;101405.69;5058600;28;19923;-81
2023/10/31 10:21:00;;;;;;;;;;;;;;;19.67;60.88;101404.75;5065743;28;19935;-81
2023/10/31 10:23:26;;;;;;;;;;;;;;;19.78;60.88;101402.41;5061293;28;19939;-81
2023/10/31 10:25:51;;;;;;;;;;;;;;;19.69;60.70;101398.63;5057597;28;20398;-79
2023/10/31 10:28:18;;;;;;;;;;;;;;;19.65;61.23;101399.41;5068642;28;20323;-80
2023/10/31 10:30:44;;;;;;;;;;;;;;;19.64;61.16;101394.03;5062848;28;20303;-79
2023/10/31 10:33:10;;;;;;;;;;;;;;;19.64;61.35;101392.31;5069747;28;19920;-79
2023/10/31 10:35:35;;;;;;;;;;;;;;;19.70;61.16;101387.19;5069883;28;20395;-81
2023/10/31 10:38:01;;;;;;;;;;;;;;;19.73;60.88;101386.41;5052722;28;19924;-81
2023/10/31 10:40:26;;;;;;;;;;;;;;;19.71;61.04;101375.75;5046969;28;19925;-82
2023/10/31 10:42:56;;;;;;;;;;;;;;;19.72;61.35;101374.88;5045512;28;20428;-81
2023/10/31 10:45:22;;;;;;;;;;;;;;;19.71;60.94;101370.44;5039654;28;20302;-81
2023/10/31 10:47:48;;;;;;;;;;;;;;;19.76;61.00;101374.97;5066822;28;19928;-81
2023/10/31 10:50:13;;;;;;;;;;;;;;;19.73;61.06;101360.78;5051181;28;19986;-81
2023/10/31 10:52:45;;;;;;;;;;;;;;;19.74;61.33;101353.72;5070510;28;20397;-81
2023/10/31 10:55:10;;;;;;;;;;;;;;;19.70;61.26;101347.44;5073696;28;20026;-81
2023/10/31 10:57:54;;;;;;;;;;;;;;;19.73;61.20;101347.53;5070279;28;19955;-82
2023/10/31 11:00:24;;;;;;;;;;;;;;;19.75;61.02;101346.66;5043977;28;19923;-81
2023/10/31 11:02:52;;;;;;;;;;;;;;;19.72;61.31;101332.47;5052539;28;19924;-81
2023/10/31 11:05:17;;;;;;;;;;;;;;;19.72;61.11;101336.88;5047274;28;19921;-81
2023/10/31 11:07:43;;;;;;;;;;;;;;;19.71;60.94;101336.00;5044629;28;19994;-82
2023/10/31 11:10:08;;;;;;;;;;;;;;;19.71;61.10;101335.09;5073685;28;19916;-81
2023/10/31 11:12:34;;;;;;;;;;;;;;;19.70;61.32;101331.53;5073558;28;19913;-81
2023/10/31 11:15:00;;;;;;;;;;;;;;;19.75;61.31;101329.03;5054834;28;19917;-83
2023/10/31 11:17:30;;;;;;;;;;;;;;;19.75;61.16;101320.16;5033857;28;19929;-83
2023/10/31 11:19:55;;;;;;;;;;;;;;;19.75;62.82;101314.84;5054611;28;20007;-81
2023/10/31 11:22:21;;;;;;;;;;;;;;;19.76;61.84;101312.25;5052311;28;20011;-81
2023/10/31 11:24:48;;;;;;;;;;;;;;;19.73;61.79;101310.44;5042994;28;19939;-81
2023/10/31 11:27:14;;;;;;;;;;;;;;;19.81;61.15;101307.06;5069992;28;19916;-80
2023/10/31 11:29:39;;;;;;;;;;;;;;;19.84;61.10;101307.16;5070924;28;19925;-79
2023/10/31 11:32:08;;;;;;;;;;;;;;;19.79;61.00;101299.09;5062096;28;19999;-80
2023/10/31 11:34:34;;;;;;;;;;;;;;;19.83;60.75;101305.34;5052143;28;19923;-80
2023/10/31 11:37:38;;;;;;;;;;;;;;;19.82;60.58;101306.22;5054092;28;20329;-80
2023/10/31 11:40:12;;;;;;;;;;;;;;;19.73;60.83;101304.25;4992233;28;19952;-78
2023/10/31 11:42:38;;;;;;;;;;;;;;;19.82;60.54;101290.31;4987304;28;19929;-79
2023/10/31 11:45:04;;;;;;;;;;;;;;;19.81;60.50;101293.81;5033580;28;19917;-80
2023/10/31 11:47:45;;;;;;;;;;;;;;;19.82;60.33;101290.31;5064823;28;19921;-80
2023/10/31 11:50:10;;;;;;;;;;;;;;;19.78;60.65;101286.69;5046795;28;20008;-80
2023/10/31 11:52:36;;;;;;;;;;;;;;;19.80;60.59;101284.09;5073451;28;20011;-80
2023/10/31 11:55:02;;;;;;;;;;;;;;;19.90;60.24;101283.47;5038367;28;20303;-81
2023/10/31 11:57:28;;;;;;;;;;;;;;;19.85;60.61;101275.38;5046248;28;19920;-80
2023/10/31 11:59:54;;;;;;;;;;;;;;;19.82;60.64;101269.13;5065907;28;19924;-79
2023/10/31 12:02:20;;;;;;;;;;;;;;;19.84;60.49;101270.06;5054932;28;19924;-80
2023/10/31 12:04:46;;;;;;;;;;;;;;;19.81;60.64;101267.31;5068288;28;20433;-80
2023/10/31 12:07:11;;;;;;;;;;;;;;;19.84;60.42;101264.75;5062252;28;19917;-80
2023/10/31 12:09:49;;;;;;;;;;;;;;;19.89;60.15;101261.34;5052383;28;20356;-80
2023/10/31 12:12:15;;;;;;;;;;;;;;;19.87;60.12;101260.41;5053357;28;19917;-79
2023/10/31 12:14:40;;;;;;;;;;;;;;;19.88;59.99;101262.22;5066490;28;19928;-79
2023/10/31 12:17:06;;;;;;;;;;;;;;;19.86;60.19;101253.31;5070752;28;19927;-79
2023/10/31 12:19:32;;;;;;;;;;;;;;;19.92;61.10;101253.47;5073275;28;19938;-79
2023/10/31 12:21:57;;;;;;;;;;;;;;;19.99;60.48;101253.63;5058703;28;20023;-79
2023/10/31 12:24:23;;;;;;;;;;;;;;;20.05;60.28;101252.00;5068083;28;20362;-79
2023/10/31 12:26:49;;;;;;;;;;;;;;;20.02;60.36;101251.91;5067955;28;20312;-80
2023/10/31 12:29:16;;;;;;;;;;;;;;;20.06;60.36;101248.47;5065554;28;19924;-78